createdAt,value
2024-05-09T00:01:16.449Z,5.77
2024-05-09T00:03:48.157Z,5.53
2024-05-09T00:06:20.513Z,5.30
2024-05-09T00:08:51.947Z,6.57
2024-05-09T00:11:23.578Z,5.73
2024-05-09T00:13:55.290Z,6.07
2024-05-09T00:16:26.847Z,4.70
2024-05-09T00:18:58.421Z,4.07
2024-05-09T00:21:30.008Z,6.87
2024-05-09T00:24:01.480Z,5.10
2024-05-09T00:26:33.112Z,4.70
2024-05-09T00:29:04.655Z,6.17
2024-05-09T00:31:36.142Z,5.33
2024-05-09T00:34:07.675Z,4.87
2024-05-09T00:36:39.200Z,6.63
2024-05-09T00:39:10.634Z,5.47
2024-05-09T00:41:42.333Z,5.43
2024-05-09T00:44:13.951Z,5.73
2024-05-09T00:46:45.512Z,4.67
2024-05-09T00:49:17.167Z,4.03
2024-05-09T00:51:49.903Z,5.23
2024-05-09T00:54:22.447Z,4.37
2024-05-09T00:56:54.372Z,6.70
2024-05-09T00:59:26.025Z,5.70
2024-05-09T01:01:59.351Z,5.57
2024-05-09T01:04:30.945Z,4.60
2024-05-09T01:07:02.466Z,7.77
2024-05-09T01:09:34.686Z,5.77
2024-05-09T01:12:06.536Z,5.33
2024-05-09T01:14:38.177Z,6.13
2024-05-09T01:17:09.820Z,7.83
2024-05-09T01:19:42.231Z,5.07
2024-05-09T01:22:13.786Z,5.23
2024-05-09T01:24:45.253Z,7.10
2024-05-09T01:27:16.692Z,7.37
2024-05-09T01:29:48.156Z,6.77
2024-05-09T01:32:19.712Z,8.30
2024-05-09T01:34:51.296Z,8.03
2024-05-09T01:37:23.691Z,7.73
2024-05-09T01:39:55.131Z,7.87
2024-05-09T01:42:27.008Z,6.93
2024-05-09T01:44:58.487Z,6.77
2024-05-09T01:47:30.259Z,5.20
2024-05-09T01:50:02.141Z,5.53
2024-05-09T01:52:38.476Z,6.47
2024-05-09T01:57:41.324Z,5.70
2024-05-09T02:00:15.722Z,6.20
2024-05-09T02:02:50.271Z,7.23
2024-05-09T02:05:21.985Z,6.60
2024-05-09T02:07:53.595Z,5.37
2024-05-09T02:10:31.771Z,6.07
2024-05-09T02:13:05.864Z,6.23
2024-05-09T02:15:37.361Z,7.27
2024-05-09T02:18:09.972Z,7.77
2024-05-09T02:20:43.300Z,5.83
2024-05-09T02:23:15.440Z,5.83
2024-05-09T02:25:47.027Z,5.80
2024-05-09T02:28:20.774Z,6.23
2024-05-09T02:30:52.212Z,5.83
2024-05-09T02:33:23.949Z,5.53
2024-05-09T02:35:55.520Z,7.70
2024-05-09T02:38:27.118Z,5.70
2024-05-09T02:40:58.617Z,7.83
2024-05-09T02:43:30.060Z,4.70
2024-05-09T02:46:01.713Z,5.43
2024-05-09T02:48:33.228Z,7.57
2024-05-09T02:51:04.919Z,7.43
2024-05-09T02:53:36.465Z,6.93
2024-05-09T02:56:08.010Z,6.37
2024-05-09T02:58:39.569Z,8.07
2024-05-09T03:01:11.232Z,8.47
2024-05-09T03:03:45.182Z,6.73
2024-05-09T03:06:16.707Z,6.53
2024-05-09T03:08:48.469Z,6.27
2024-05-09T03:11:24.034Z,5.87
2024-05-09T03:13:55.624Z,6.57
2024-05-09T03:16:27.386Z,6.63
2024-05-09T03:18:58.867Z,6.20
2024-05-09T03:21:30.351Z,5.57
2024-05-09T03:24:02.862Z,7.67
2024-05-09T03:26:34.466Z,5.43
2024-05-09T03:29:05.998Z,5.00
2024-05-09T03:31:38.876Z,6.57
2024-05-09T03:34:11.299Z,5.43
2024-05-09T03:36:45.600Z,5.20
2024-05-09T03:39:17.137Z,6.37
2024-05-09T03:41:48.583Z,4.87
2024-05-09T03:44:20.080Z,5.33
2024-05-09T03:46:51.700Z,8.33
2024-05-09T03:49:23.251Z,5.83
2024-05-09T03:51:54.754Z,7.97
2024-05-09T03:54:27.493Z,7.97
2024-05-09T03:56:58.985Z,8.40
2024-05-09T03:59:30.516Z,5.63
2024-05-09T04:02:02.201Z,5.10
2024-05-09T04:04:33.747Z,4.23
2024-05-09T04:07:05.326Z,6.43
2024-05-09T04:09:36.788Z,6.37
2024-05-09T04:12:08.403Z,6.47
2024-05-09T04:14:40.012Z,6.90
2024-05-09T04:17:11.620Z,6.43
2024-05-09T04:19:43.068Z,6.17
2024-05-09T04:22:14.508Z,5.37
2024-05-09T04:24:45.983Z,6.43
2024-05-09T04:27:17.424Z,7.47
2024-05-09T04:29:48.879Z,6.13
2024-05-09T04:32:20.434Z,8.80
2024-05-09T04:34:52.033Z,8.37
2024-05-09T04:37:23.533Z,6.53
2024-05-09T04:39:55.116Z,7.60
2024-05-09T04:42:26.601Z,5.93
2024-05-09T04:44:58.810Z,7.30
2024-05-09T04:47:30.590Z,5.30
2024-05-09T04:50:02.586Z,6.87
2024-05-09T04:52:34.108Z,6.57
2024-05-09T04:55:06.052Z,6.80
2024-05-09T04:57:37.513Z,5.60
2024-05-09T05:00:14.732Z,6.17
2024-05-09T05:02:53.253Z,7.63
2024-05-09T05:05:24.874Z,4.70
2024-05-09T05:07:56.838Z,4.90
2024-05-09T05:10:33.998Z,6.00
2024-05-09T05:13:19.995Z,6.07
2024-05-09T05:15:56.829Z,8.23
2024-05-09T05:18:29.628Z,6.33
2024-05-09T05:21:01.334Z,7.73
2024-05-09T05:23:32.952Z,4.90
2024-05-09T05:26:05.279Z,5.77
2024-05-09T05:28:36.831Z,5.37
2024-05-09T05:31:08.272Z,6.33
2024-05-09T05:33:39.780Z,6.20
2024-05-09T05:36:11.291Z,8.63
2024-05-09T05:38:43.015Z,7.17
2024-05-09T05:41:14.589Z,13.30
2024-05-09T05:43:46.158Z,6.13
2024-05-09T05:46:17.642Z,6.73
2024-05-09T05:48:49.427Z,5.93
2024-05-09T05:51:21.087Z,8.30
2024-05-09T05:53:52.660Z,7.53
2024-05-09T05:56:24.194Z,8.90
2024-05-09T05:58:55.702Z,7.23
2024-05-09T06:01:27.289Z,7.93
2024-05-09T06:03:59.048Z,6.20
2024-05-09T06:06:30.505Z,7.37
2024-05-09T06:09:01.954Z,5.93
2024-05-09T06:11:33.486Z,8.33
2024-05-09T06:14:05.543Z,6.63
2024-05-09T06:16:37.130Z,5.40
2024-05-09T06:19:08.658Z,9.20
2024-05-09T06:21:40.160Z,7.30
2024-05-09T06:24:11.690Z,4.43
2024-05-09T06:26:44.374Z,4.67
2024-05-09T06:29:15.900Z,3.97
2024-05-09T06:31:47.472Z,4.10
2024-05-09T06:34:19.479Z,5.83
2024-05-09T06:36:50.981Z,6.07
2024-05-09T06:39:23.472Z,5.63
2024-05-09T06:41:54.938Z,5.30
2024-05-09T06:44:26.852Z,3.93
2024-05-09T06:46:59.846Z,6.03
2024-05-09T06:49:32.738Z,5.80
2024-05-09T06:52:04.623Z,3.43
2024-05-09T06:54:37.638Z,5.30
2024-05-09T06:57:09.117Z,4.53
2024-05-09T06:59:40.679Z,5.10
2024-05-09T07:02:12.290Z,4.03
2024-05-09T07:04:43.800Z,3.97
2024-05-09T07:07:15.235Z,4.83
2024-05-09T07:09:46.727Z,5.13
2024-05-09T07:12:18.362Z,5.70
2024-05-09T07:14:50.510Z,3.90
2024-05-09T07:17:22.011Z,5.77
2024-05-09T07:19:53.793Z,4.27
2024-05-09T07:22:25.527Z,5.03
2024-05-09T07:24:57.138Z,5.67
2024-05-09T07:27:28.683Z,4.27
2024-05-09T07:30:00.819Z,5.70
2024-05-09T07:32:32.478Z,5.03
2024-05-09T07:35:04.196Z,5.60
2024-05-09T07:37:35.702Z,4.13
2024-05-09T07:40:11.948Z,4.77
2024-05-09T07:42:47.143Z,4.70
2024-05-09T07:53:37.273Z,6.57
2024-05-09T07:56:06.402Z,6.65
2024-05-09T07:58:38.645Z,4.65
2024-05-09T08:01:10.139Z,4.47
2024-05-09T08:03:42.907Z,5.65
2024-05-09T08:06:14.565Z,5.20
2024-05-09T08:08:47.025Z,4.38
2024-05-09T08:11:20.354Z,9.38
2024-05-09T08:13:51.898Z,5.43
2024-05-09T08:16:23.828Z,4.78
2024-05-09T08:18:55.522Z,5.40
2024-05-09T08:21:27.054Z,13.30
2024-05-09T08:23:58.511Z,5.00
2024-05-09T08:26:30.052Z,5.38
2024-05-09T08:29:01.512Z,6.20
2024-05-09T08:31:37.987Z,5.18
2024-05-09T08:34:10.046Z,5.45
2024-05-09T08:36:42.331Z,5.13
2024-05-09T08:39:13.834Z,3.92
2024-05-09T08:41:49.561Z,5.57
2024-05-09T08:46:54.258Z,3.47
2024-05-09T08:49:26.970Z,4.28
2024-05-09T08:51:58.722Z,5.63
2024-05-09T08:54:30.555Z,4.40
2024-05-09T08:57:04.730Z,2.70
2024-05-09T08:59:42.604Z,4.55
2024-05-09T09:02:14.876Z,3.40
2024-05-09T09:05:03.065Z,3.22
2024-05-09T09:07:35.136Z,5.35
2024-05-09T09:10:08.580Z,4.60
2024-05-09T09:12:40.555Z,4.32
2024-05-09T09:15:12.163Z,3.25
2024-05-09T09:17:58.159Z,4.22
2024-05-09T09:20:36.410Z,2.90
2024-05-09T09:23:08.869Z,4.13
2024-05-09T09:25:40.714Z,7.03
2024-05-09T09:28:12.618Z,4.28
2024-05-09T09:30:44.430Z,5.55
2024-05-09T09:33:17.416Z,4.15
2024-05-09T09:35:48.914Z,4.72
2024-05-09T09:38:23.200Z,6.35
2024-05-09T09:40:54.776Z,6.07
2024-05-09T09:43:26.781Z,3.65
2024-05-09T09:46:00.681Z,4.97
2024-05-09T09:48:33.859Z,7.55
2024-05-09T09:51:07.762Z,5.88
2024-05-09T09:53:39.929Z,7.57
2024-05-09T09:56:11.956Z,3.60
2024-05-09T09:58:43.971Z,4.28
2024-05-09T10:01:15.525Z,5.95
2024-05-09T10:03:47.485Z,4.82
2024-05-09T10:06:19.518Z,6.13
2024-05-09T10:08:51.552Z,4.82
2024-05-09T10:11:23.831Z,7.03
2024-05-09T10:13:57.360Z,4.50
2024-05-09T10:16:32.392Z,7.20
2024-05-09T10:19:04.139Z,5.30
2024-05-09T10:21:46.267Z,4.93
2024-05-09T10:24:19.064Z,5.38
2024-05-09T10:26:56.568Z,6.40
2024-05-09T10:29:28.125Z,7.95
2024-05-09T10:31:59.686Z,4.95
2024-05-09T10:34:34.638Z,6.47
2024-05-09T10:37:06.257Z,9.00
2024-05-09T10:39:38.806Z,5.03
2024-05-09T10:42:10.333Z,6.00
2024-05-09T10:44:42.514Z,6.95
2024-05-09T10:47:15.021Z,6.03
2024-05-09T10:49:47.015Z,5.40
2024-05-09T10:52:22.438Z,5.88
2024-05-09T10:54:54.434Z,5.82
2024-05-09T10:57:27.090Z,5.38
2024-05-09T10:59:59.605Z,5.20
2024-05-09T11:02:31.785Z,6.97
2024-05-09T11:05:03.542Z,7.90
2024-05-09T11:07:35.118Z,4.70
2024-05-09T11:10:09.850Z,5.15
2024-05-09T11:12:45.909Z,6.38
2024-05-09T11:15:17.455Z,4.88
2024-05-09T11:17:49.058Z,7.82
2024-05-09T11:20:26.924Z,6.20
2024-05-09T11:23:06.088Z,6.00
2024-05-09T11:25:37.530Z,6.13
2024-05-09T11:28:09.089Z,8.55
2024-05-09T11:30:40.742Z,4.93
2024-05-09T11:33:13.405Z,6.00
2024-05-09T11:35:46.485Z,5.57
2024-05-09T11:38:17.967Z,5.50
2024-05-09T11:40:49.441Z,6.28
2024-05-09T11:43:21.144Z,4.88
2024-05-09T11:45:53.165Z,3.65
2024-05-09T11:48:25.795Z,5.03
2024-05-09T11:50:58.030Z,5.53
2024-05-09T11:53:29.585Z,5.43
2024-05-09T11:56:01.138Z,4.38
2024-05-09T11:58:34.636Z,4.90
2024-05-09T12:01:06.492Z,4.95
2024-05-09T12:03:38.345Z,4.07
2024-05-09T12:06:10.194Z,4.63
2024-05-09T12:08:41.738Z,5.43
2024-05-09T12:11:13.904Z,3.70
2024-05-09T12:13:45.443Z,4.90
2024-05-09T12:16:17.126Z,5.30
2024-05-09T12:18:48.864Z,4.05
2024-05-09T12:21:20.443Z,4.65
2024-05-09T12:23:51.975Z,4.43
2024-05-09T12:26:23.557Z,4.38
2024-05-09T12:28:54.996Z,5.88
2024-05-09T12:31:26.655Z,4.43
2024-05-09T12:34:00.291Z,5.13
2024-05-09T12:36:31.964Z,3.35
2024-05-09T12:39:06.220Z,3.95
2024-05-09T12:41:37.692Z,4.93
2024-05-09T12:44:09.120Z,4.43
2024-05-09T12:46:40.660Z,4.35
2024-05-09T12:49:13.807Z,4.93
2024-05-09T12:51:47.127Z,5.07
2024-05-09T12:54:18.627Z,5.28
2024-05-09T12:56:50.607Z,4.05
2024-05-09T12:59:22.082Z,3.78
2024-05-09T13:01:53.585Z,4.75
2024-05-09T13:04:25.381Z,4.45
2024-05-09T13:06:57.587Z,4.70
2024-05-09T13:09:29.183Z,4.00
2024-05-09T13:12:00.751Z,5.03
2024-05-09T13:14:32.270Z,5.35
2024-05-09T13:17:04.159Z,7.90
2024-05-09T13:19:35.662Z,5.65
2024-05-09T13:22:07.222Z,4.20
2024-05-09T13:24:38.734Z,5.68
2024-05-09T13:27:10.338Z,5.18
2024-05-09T13:29:44.301Z,3.53
2024-05-09T13:32:15.988Z,3.75
2024-05-09T13:34:47.585Z,3.42
2024-05-09T13:37:19.206Z,4.00
2024-05-09T13:39:50.923Z,3.33
2024-05-09T13:42:22.443Z,2.78
2024-05-09T13:44:54.339Z,3.63
2024-05-09T13:47:25.927Z,3.60
2024-05-09T13:49:57.862Z,4.10
2024-05-09T13:52:29.288Z,3.95
2024-05-09T13:55:00.795Z,3.20
2024-05-09T13:57:32.391Z,6.22
2024-05-09T14:00:07.013Z,4.75
2024-05-09T14:02:39.496Z,3.17
2024-05-09T14:05:11.261Z,3.55
2024-05-09T14:07:43.934Z,4.25
2024-05-09T14:10:22.967Z,4.50
2024-05-09T14:13:01.136Z,4.57
2024-05-09T14:15:32.899Z,3.78
2024-05-09T14:18:04.945Z,4.95
2024-05-09T14:20:36.474Z,4.32
2024-05-09T14:23:08.065Z,2.67
2024-05-09T14:25:42.707Z,4.60
2024-05-09T14:28:15.427Z,5.10
2024-05-09T14:30:47.014Z,3.85
2024-05-09T14:33:23.526Z,4.07
2024-05-09T14:35:55.459Z,3.88
2024-05-09T14:38:27.309Z,6.38
2024-05-09T14:40:59.013Z,3.05
2024-05-09T14:43:30.766Z,4.78
2024-05-09T14:46:02.446Z,7.05
2024-05-09T14:48:34.130Z,3.65
2024-05-09T14:51:05.932Z,4.82
2024-05-09T14:53:37.406Z,3.28
2024-05-09T14:56:09.293Z,3.85
2024-05-09T14:58:40.917Z,7.03
2024-05-09T15:01:12.477Z,8.73
2024-05-09T15:03:44.261Z,6.72
2024-05-09T15:06:17.040Z,7.82
2024-05-09T15:08:56.730Z,7.32
2024-05-09T15:11:28.374Z,7.38
2024-05-09T15:13:59.882Z,8.35
2024-05-09T15:16:31.490Z,7.22
2024-05-09T15:19:03.532Z,7.22
2024-05-09T15:21:35.171Z,5.50
2024-05-09T15:24:06.707Z,10.00
2024-05-09T15:26:38.290Z,8.18
2024-05-09T15:29:10.173Z,7.43
2024-05-09T15:31:41.724Z,10.15
2024-05-09T15:34:13.303Z,5.75
2024-05-09T15:36:47.895Z,5.25
2024-05-09T15:39:19.441Z,7.10
2024-05-09T15:41:56.058Z,7.15
2024-05-09T15:44:27.639Z,5.75
2024-05-09T15:46:59.123Z,5.75
2024-05-09T15:49:30.901Z,5.93
2024-05-09T15:52:02.614Z,8.10
2024-05-09T15:54:34.156Z,6.50
2024-05-09T15:57:07.126Z,7.25
2024-05-09T15:59:38.860Z,6.43
2024-05-09T16:02:11.543Z,7.18
2024-05-09T16:04:43.476Z,7.85
2024-05-09T16:07:15.110Z,7.65
2024-05-09T16:09:46.599Z,8.13
2024-05-09T16:12:18.099Z,9.45
2024-05-09T16:14:50.795Z,7.53
2024-05-09T16:17:22.900Z,13.38
2024-05-09T16:19:54.712Z,12.63
2024-05-09T16:22:26.498Z,14.55
2024-05-09T16:24:58.082Z,14.38
2024-05-09T16:27:29.668Z,11.98
2024-05-09T16:30:04.070Z,13.63
2024-05-09T16:32:40.801Z,11.82
2024-05-09T16:35:12.684Z,11.57
2024-05-09T16:37:44.215Z,12.32
2024-05-09T16:40:24.950Z,11.45
2024-05-09T16:43:05.898Z,13.70
2024-05-09T16:45:39.394Z,11.00
2024-05-09T16:48:12.199Z,12.73
2024-05-09T16:50:44.111Z,13.98
2024-05-09T16:53:15.735Z,10.00
2024-05-09T16:55:47.256Z,12.23
2024-05-09T16:58:19.269Z,14.43
2024-05-09T17:00:51.161Z,15.80
2024-05-09T17:03:23.595Z,11.27
2024-05-09T17:05:55.529Z,11.40
2024-05-09T17:08:27.087Z,11.53
2024-05-09T17:10:58.599Z,12.43
2024-05-09T17:13:32.220Z,12.87
2024-05-09T17:16:04.220Z,11.47
2024-05-09T17:18:35.999Z,11.17
2024-05-09T17:21:07.552Z,10.70
2024-05-09T17:23:39.415Z,10.63
2024-05-09T17:26:11.103Z,17.17
2024-05-09T17:28:43.002Z,10.33
2024-05-09T17:31:14.559Z,11.13
2024-05-09T17:33:46.503Z,10.60
2024-05-09T17:36:19.740Z,11.53
2024-05-09T17:38:51.265Z,10.70
2024-05-09T17:41:22.726Z,10.10
2024-05-09T17:43:54.326Z,12.87
2024-05-09T17:46:25.966Z,12.87
2024-05-09T17:49:00.410Z,12.50
2024-05-09T17:51:32.507Z,10.77
2024-05-09T17:54:03.960Z,10.47
2024-05-09T17:56:35.497Z,9.60
2024-05-09T17:59:10.029Z,11.60
2024-05-09T18:01:42.925Z,11.57
2024-05-09T18:04:14.573Z,12.17
2024-05-09T18:06:46.184Z,12.47
2024-05-09T18:09:17.731Z,13.87
2024-05-09T18:11:49.293Z,10.33
2024-05-09T18:14:20.802Z,13.07
2024-05-09T18:16:52.311Z,10.37
2024-05-09T18:19:23.835Z,7.97
2024-05-09T18:21:55.466Z,8.33
2024-05-09T18:24:26.945Z,10.20
2024-05-09T18:26:59.194Z,10.63
2024-05-09T18:29:30.785Z,11.87
2024-05-09T18:32:02.287Z,12.63
2024-05-09T18:34:33.843Z,8.60
2024-05-09T18:37:05.384Z,8.97
2024-05-09T18:39:37.017Z,8.60
2024-05-09T18:42:08.712Z,7.90
2024-05-09T18:44:40.272Z,9.33
2024-05-09T18:47:11.820Z,8.37
2024-05-09T18:49:43.489Z,8.30
2024-05-09T18:52:15.558Z,8.13
2024-05-09T18:54:47.751Z,10.10
2024-05-09T18:57:19.248Z,8.80
2024-05-09T18:59:51.061Z,7.43
2024-05-09T19:02:22.675Z,7.30
2024-05-09T19:04:54.349Z,8.00
2024-05-09T19:07:25.898Z,6.47
2024-05-09T19:09:57.525Z,8.93
2024-05-09T19:12:29.023Z,6.17
2024-05-09T19:15:00.451Z,6.87
2024-05-09T19:17:32.197Z,6.70
2024-05-09T19:20:05.751Z,7.30
2024-05-09T19:22:37.466Z,6.33
2024-05-09T19:25:08.998Z,6.60
2024-05-09T19:27:42.339Z,5.37
2024-05-09T19:30:21.076Z,5.53
2024-05-09T19:32:57.159Z,7.17
2024-05-09T19:35:28.678Z,7.60
2024-05-09T19:38:00.597Z,7.23
2024-05-09T19:40:33.917Z,6.17
2024-05-09T19:43:07.048Z,6.27
2024-05-09T19:45:38.888Z,5.33
2024-05-09T19:48:10.824Z,5.10
2024-05-09T19:50:44.507Z,5.03
2024-05-09T19:53:16.641Z,5.03
2024-05-09T19:55:48.152Z,7.10
2024-05-09T19:58:20.895Z,5.80
2024-05-09T20:00:52.535Z,7.17
2024-05-09T20:03:24.116Z,7.87
2024-05-09T20:05:55.786Z,4.93
2024-05-09T20:08:27.319Z,6.40
2024-05-09T20:10:58.824Z,5.87
2024-05-09T20:13:30.327Z,9.50
2024-05-09T20:16:01.844Z,8.63
2024-05-09T20:18:33.534Z,9.03
2024-05-09T20:21:06.482Z,7.53
2024-05-09T20:23:38.126Z,6.87
2024-05-09T20:26:09.680Z,7.33
2024-05-09T20:28:41.532Z,8.17
2024-05-09T20:31:20.863Z,6.03
2024-05-09T20:33:52.690Z,7.20
2024-05-09T20:36:24.192Z,9.37
2024-05-09T20:38:55.663Z,8.07
2024-05-09T20:41:27.648Z,8.20
2024-05-09T20:44:02.056Z,7.87
2024-05-09T20:46:33.542Z,8.17
2024-05-09T20:49:05.232Z,7.90
2024-05-09T20:51:37.017Z,9.13
2024-05-09T20:54:08.479Z,9.23
2024-05-09T20:56:40.078Z,7.33
2024-05-09T20:59:11.886Z,8.37
2024-05-09T21:01:48.084Z,7.70
2024-05-09T21:04:20.453Z,7.50
2024-05-09T21:06:52.087Z,8.57
2024-05-09T21:09:25.693Z,9.97
2024-05-09T21:11:57.288Z,9.47
2024-05-09T21:14:28.803Z,8.73
2024-05-09T21:17:00.519Z,11.07
2024-05-09T21:19:32.061Z,10.20
2024-05-09T21:22:03.681Z,11.23
2024-05-09T21:24:35.327Z,7.90
2024-05-09T21:27:06.920Z,11.47
2024-05-09T21:29:38.397Z,11.90
2024-05-09T21:32:09.973Z,12.73
2024-05-09T21:34:41.671Z,11.13
2024-05-09T21:37:13.295Z,10.30
2024-05-09T21:39:44.841Z,12.03
2024-05-09T21:42:16.330Z,14.63
2024-05-09T21:44:47.937Z,13.87
2024-05-09T21:47:19.431Z,11.00
2024-05-09T21:49:50.946Z,15.40
2024-05-09T21:52:22.551Z,12.03
2024-05-09T21:54:54.036Z,12.00
2024-05-09T21:57:25.583Z,12.57
2024-05-09T21:59:57.036Z,9.73
2024-05-09T22:02:28.772Z,12.47
2024-05-09T22:05:00.598Z,11.07
2024-05-09T22:07:32.227Z,13.30
2024-05-09T22:10:06.398Z,14.77
2024-05-09T22:12:41.290Z,10.87
2024-05-09T22:15:12.769Z,12.63
2024-05-09T22:17:44.412Z,11.47
2024-05-09T22:20:22.257Z,12.33
2024-05-09T22:23:00.388Z,9.67
2024-05-09T22:25:32.578Z,9.73
2024-05-09T22:28:05.376Z,10.63
2024-05-09T22:30:39.842Z,10.93
2024-05-09T22:33:12.579Z,9.83
2024-05-09T22:35:44.358Z,9.93
2024-05-09T22:38:15.855Z,9.47
2024-05-09T22:40:49.598Z,9.97
2024-05-09T22:43:23.917Z,10.27
2024-05-09T22:45:56.894Z,10.03
2024-05-09T22:48:28.497Z,10.47
2024-05-09T22:51:00.588Z,9.10
2024-05-09T22:53:32.047Z,8.07
2024-05-09T22:56:03.652Z,8.37
2024-05-09T22:58:35.121Z,9.93
2024-05-09T23:01:07.122Z,9.63
2024-05-09T23:03:38.800Z,8.40
2024-05-09T23:06:10.369Z,9.83
2024-05-09T23:08:41.795Z,9.77
2024-05-09T23:11:13.573Z,10.20
2024-05-09T23:13:45.230Z,10.17
2024-05-09T23:16:16.742Z,9.10
2024-05-09T23:18:48.324Z,9.30
2024-05-09T23:21:19.821Z,12.53
2024-05-09T23:23:51.239Z,13.30
2024-05-09T23:26:22.720Z,10.00
2024-05-09T23:28:54.162Z,7.90
2024-05-09T23:31:25.700Z,8.77
2024-05-09T23:33:57.549Z,9.37
2024-05-09T23:36:29.311Z,8.13
2024-05-09T23:39:00.803Z,9.50
2024-05-09T23:41:32.297Z,9.73
2024-05-09T23:44:03.860Z,9.73
2024-05-09T23:46:35.567Z,8.93
2024-05-09T23:49:07.202Z,9.33
2024-05-09T23:51:38.831Z,10.10
2024-05-09T23:54:10.335Z,12.07
2024-05-09T23:56:41.779Z,10.57
2024-05-09T23:59:13.221Z,10.23
